sensor_id;sensor_type;location;lat;lon;timestamp;temperature;humidity
56869;DHT22;42754;0.000;0.000;2022-09-12T00:01:25;14.40;99.90
56869;DHT22;42754;0.000;0.000;2022-09-12T00:03:52;14.40;99.90
56869;DHT22;42754;0.000;0.000;2022-09-12T00:06:24;14.40;99.90
56869;DHT22;42754;0.000;0.000;2022-09-12T00:08:53;14.40;99.90
56869;DHT22;42754;0.000;0.000;2022-09-12T00:11:19;14.30;99.90
56869;DHT22;42754;0.000;0.000;2022-09-12T00:13:45;14.40;99.90
56869;DHT22;42754;0.000;0.000;2022-09-12T00:16:19;14.30;99.90
56869;DHT22;42754;0.000;0.000;2022-09-12T00:18:45;14.30;99.90
56869;DHT22;42754;0.000;0.000;2022-09-12T00:21:12;14.20;99.90
56869;DHT22;42754;0.000;0.000;2022-09-12T00:23:38;14.20;99.90
56869;DHT22;42754;0.000;0.000;2022-09-12T00:26:05;14.20;99.90
56869;DHT22;42754;0.000;0.000;2022-09-12T00:28:32;14.20;99.90
56869;DHT22;42754;0.000;0.000;2022-09-12T00:30:58;14.20;99.90
56869;DHT22;42754;0.000;0.000;2022-09-12T00:33:24;14.20;99.90
56869;DHT22;42754;0.000;0.000;2022-09-12T00:35:50;14.20;99.90
56869;DHT22;42754;0.000;0.000;2022-09-12T00:38:20;14.20;99.90
56869;DHT22;42754;0.000;0.000;2022-09-12T00:40:46;14.10;99.90
56869;DHT22;42754;0.000;0.000;2022-09-12T00:43:35;14.10;99.90
56869;DHT22;42754;0.000;0.000;2022-09-12T00:46:13;14.00;99.90
56869;DHT22;42754;0.000;0.000;2022-09-12T00:48:45;14.00;99.90
56869;DHT22;42754;0.000;0.000;2022-09-12T00:51:12;13.90;99.90
56869;DHT22;42754;0.000;0.000;2022-09-12T00:53:40;14.00;99.90
56869;DHT22;42754;0.000;0.000;2022-09-12T00:56:07;14.00;99.90
56869;DHT22;42754;0.000;0.000;2022-09-12T00:58:46;13.90;99.90
56869;DHT22;42754;0.000;0.000;2022-09-12T01:01:14;13.90;99.90
56869;DHT22;42754;0.000;0.000;2022-09-12T01:03:40;13.90;99.90
56869;DHT22;42754;0.000;0.000;2022-09-12T01:06:29;13.90;99.90
56869;DHT22;42754;0.000;0.000;2022-09-12T01:08:57;13.80;99.90
56869;DHT22;42754;0.000;0.000;2022-09-12T01:11:23;13.90;99.90
56869;DHT22;42754;0.000;0.000;2022-09-12T01:13:49;13.80;99.90
56869;DHT22;42754;0.000;0.000;2022-09-12T01:16:15;13.90;99.90
56869;DHT22;42754;0.000;0.000;2022-09-12T01:21:19;13.90;99.90
56869;DHT22;42754;0.000;0.000;2022-09-12T01:32:20;13.70;99.90
56869;DHT22;42754;0.000;0.000;2022-09-12T01:34:52;13.70;99.90
56869;DHT22;42754;0.000;0.000;2022-09-12T01:37:30;13.70;99.90
56869;DHT22;42754;0.000;0.000;2022-09-12T01:40:12;13.70;99.90
56869;DHT22;42754;0.000;0.000;2022-09-12T01:43:00;13.70;99.90
56869;DHT22;42754;0.000;0.000;2022-09-12T01:45:56;13.60;99.90
56869;DHT22;42754;0.000;0.000;2022-09-12T01:48:27;13.50;99.90
56869;DHT22;42754;0.000;0.000;2022-09-12T01:51:34;13.60;99.90
56869;DHT22;42754;0.000;0.000;2022-09-12T01:54:04;13.70;99.90
56869;DHT22;42754;0.000;0.000;2022-09-12T01:56:33;13.70;99.90
56869;DHT22;42754;0.000;0.000;2022-09-12T01:59:19;13.50;99.90
56869;DHT22;42754;0.000;0.000;2022-09-12T02:01:54;13.50;99.90
56869;DHT22;42754;0.000;0.000;2022-09-12T02:04:24;13.50;99.90
56869;DHT22;42754;0.000;0.000;2022-09-12T02:07:19;13.50;99.90
56869;DHT22;42754;0.000;0.000;2022-09-12T02:09:51;13.40;99.90
56869;DHT22;42754;0.000;0.000;2022-09-12T02:12:26;13.30;99.90
56869;DHT22;42754;0.000;0.000;2022-09-12T02:14:58;13.30;99.90
56869;DHT22;42754;0.000;0.000;2022-09-12T02:17:28;13.30;99.90
56869;DHT22;42754;0.000;0.000;2022-09-12T02:20:03;13.30;99.90
56869;DHT22;42754;0.000;0.000;2022-09-12T02:22:33;13.30;99.90
56869;DHT22;42754;0.000;0.000;2022-09-12T02:25:00;13.30;99.90
56869;DHT22;42754;0.000;0.000;2022-09-12T02:27:33;13.30;99.90
56869;DHT22;42754;0.000;0.000;2022-09-12T02:30:05;13.30;99.90
56869;DHT22;42754;0.000;0.000;2022-09-12T02:32:44;13.30;99.90
56869;DHT22;42754;0.000;0.000;2022-09-12T02:38:25;13.20;99.90
56869;DHT22;42754;0.000;0.000;2022-09-12T02:40:53;13.10;99.90
56869;DHT22;42754;0.000;0.000;2022-09-12T02:43:18;13.10;99.90
56869;DHT22;42754;0.000;0.000;2022-09-12T02:45:44;13.10;99.90
56869;DHT22;42754;0.000;0.000;2022-09-12T02:50:41;13.00;99.90
56869;DHT22;42754;0.000;0.000;2022-09-12T02:53:08;13.00;99.90
56869;DHT22;42754;0.000;0.000;2022-09-12T02:55:36;13.00;99.90
56869;DHT22;42754;0.000;0.000;2022-09-12T02:58:05;13.00;99.90
56869;DHT22;42754;0.000;0.000;2022-09-12T03:01:03;13.00;99.90
56869;DHT22;42754;0.000;0.000;2022-09-12T03:07:00;13.00;99.90
56869;DHT22;42754;0.000;0.000;2022-09-12T03:09:46;13.00;99.90
56869;DHT22;42754;0.000;0.000;2022-09-12T03:18:08;13.10;99.90
56869;DHT22;42754;0.000;0.000;2022-09-12T03:28:29;12.90;99.90
56869;DHT22;42754;0.000;0.000;2022-09-12T03:30:56;12.90;99.90
56869;DHT22;42754;0.000;0.000;2022-09-12T03:33:23;12.90;99.90
56869;DHT22;42754;0.000;0.000;2022-09-12T03:35:50;12.90;99.90
56869;DHT22;42754;0.000;0.000;2022-09-12T03:38:16;12.80;99.90
56869;DHT22;42754;0.000;0.000;2022-09-12T03:40:42;12.80;99.90
56869;DHT22;42754;0.000;0.000;2022-09-12T03:43:09;12.80;99.90
56869;DHT22;42754;0.000;0.000;2022-09-12T03:45:35;12.70;99.90
56869;DHT22;42754;0.000;0.000;2022-09-12T03:48:01;12.70;99.90
56869;DHT22;42754;0.000;0.000;2022-09-12T03:50:27;12.60;99.90
56869;DHT22;42754;0.000;0.000;2022-09-12T03:52:53;12.60;99.90
56869;DHT22;42754;0.000;0.000;2022-09-12T03:55:18;12.60;99.90
56869;DHT22;42754;0.000;0.000;2022-09-12T03:57:44;12.60;99.90
56869;DHT22;42754;0.000;0.000;2022-09-12T04:00:10;12.60;99.90
56869;DHT22;42754;0.000;0.000;2022-09-12T04:02:36;12.50;99.90
56869;DHT22;42754;0.000;0.000;2022-09-12T04:05:02;12.60;99.90
56869;DHT22;42754;0.000;0.000;2022-09-12T04:07:28;12.70;99.90
56869;DHT22;42754;0.000;0.000;2022-09-12T04:09:54;12.60;99.90
56869;DHT22;42754;0.000;0.000;2022-09-12T04:12:20;12.60;99.90
56869;DHT22;42754;0.000;0.000;2022-09-12T04:14:46;12.60;99.90
56869;DHT22;42754;0.000;0.000;2022-09-12T04:17:12;12.60;99.90
56869;DHT22;42754;0.000;0.000;2022-09-12T04:19:38;12.50;99.90
56869;DHT22;42754;0.000;0.000;2022-09-12T04:22:04;12.40;99.90
56869;DHT22;42754;0.000;0.000;2022-09-12T04:24:30;12.50;99.90
56869;DHT22;42754;0.000;0.000;2022-09-12T04:26:56;12.40;99.90
56869;DHT22;42754;0.000;0.000;2022-09-12T04:29:22;12.40;99.90
56869;DHT22;42754;0.000;0.000;2022-09-12T04:31:47;12.40;99.90
56869;DHT22;42754;0.000;0.000;2022-09-12T04:34:13;12.50;99.90
56869;DHT22;42754;0.000;0.000;2022-09-12T04:36:39;12.50;99.90
56869;DHT22;42754;0.000;0.000;2022-09-12T04:39:06;12.40;99.90
56869;DHT22;42754;0.000;0.000;2022-09-12T04:41:37;12.50;99.90
56869;DHT22;42754;0.000;0.000;2022-09-12T04:44:13;12.50;99.90
56869;DHT22;42754;0.000;0.000;2022-09-12T04:46:42;12.50;99.90
56869;DHT22;42754;0.000;0.000;2022-09-12T04:49:09;12.40;99.90
56869;DHT22;42754;0.000;0.000;2022-09-12T04:51:37;12.50;99.90
56869;DHT22;42754;0.000;0.000;2022-09-12T04:54:05;12.40;99.90
56869;DHT22;42754;0.000;0.000;2022-09-12T04:56:31;12.40;99.90
56869;DHT22;42754;0.000;0.000;2022-09-12T04:58:59;12.50;99.90
56869;DHT22;42754;0.000;0.000;2022-09-12T05:01:27;12.40;99.90
56869;DHT22;42754;0.000;0.000;2022-09-12T05:03:53;12.40;99.90
56869;DHT22;42754;0.000;0.000;2022-09-12T05:06:21;12.50;99.90
56869;DHT22;42754;0.000;0.000;2022-09-12T05:08:49;12.50;99.90
56869;DHT22;42754;0.000;0.000;2022-09-12T05:11:23;12.40;99.90
56869;DHT22;42754;0.000;0.000;2022-09-12T05:13:49;12.40;99.90
56869;DHT22;42754;0.000;0.000;2022-09-12T05:16:16;12.40;99.90
56869;DHT22;42754;0.000;0.000;2022-09-12T05:18:43;12.40;99.90
56869;DHT22;42754;0.000;0.000;2022-09-12T05:21:11;12.40;99.90
56869;DHT22;42754;0.000;0.000;2022-09-12T05:23:37;12.50;99.90
56869;DHT22;42754;0.000;0.000;2022-09-12T05:26:04;12.50;99.90
56869;DHT22;42754;0.000;0.000;2022-09-12T05:28:33;12.50;99.90
56869;DHT22;42754;0.000;0.000;2022-09-12T05:31:01;12.60;99.90
56869;DHT22;42754;0.000;0.000;2022-09-12T05:33:27;12.60;99.90
56869;DHT22;42754;0.000;0.000;2022-09-12T05:35:53;12.60;99.90
56869;DHT22;42754;0.000;0.000;2022-09-12T05:38:18;12.70;99.90
56869;DHT22;42754;0.000;0.000;2022-09-12T05:40:44;12.70;99.90
56869;DHT22;42754;0.000;0.000;2022-09-12T05:43:10;12.80;99.90
56869;DHT22;42754;0.000;0.000;2022-09-12T05:45:37;12.80;99.90
56869;DHT22;42754;0.000;0.000;2022-09-12T05:48:03;13.00;99.90
56869;DHT22;42754;0.000;0.000;2022-09-12T05:50:29;13.00;99.90
56869;DHT22;42754;0.000;0.000;2022-09-12T05:52:56;12.90;99.90
56869;DHT22;42754;0.000;0.000;2022-09-12T05:55:21;12.80;99.90
56869;DHT22;42754;0.000;0.000;2022-09-12T05:57:47;12.90;99.90
56869;DHT22;42754;0.000;0.000;2022-09-12T06:00:13;13.00;99.90
56869;DHT22;42754;0.000;0.000;2022-09-12T06:02:39;13.00;99.90
56869;DHT22;42754;0.000;0.000;2022-09-12T06:05:05;13.00;99.90
56869;DHT22;42754;0.000;0.000;2022-09-12T06:07:30;13.00;99.90
56869;DHT22;42754;0.000;0.000;2022-09-12T06:09:57;13.10;99.90
56869;DHT22;42754;0.000;0.000;2022-09-12T06:12:24;13.00;99.90
56869;DHT22;42754;0.000;0.000;2022-09-12T06:14:51;13.10;99.90
56869;DHT22;42754;0.000;0.000;2022-09-12T06:17:17;13.10;99.90
56869;DHT22;42754;0.000;0.000;2022-09-12T06:19:43;13.20;99.90
56869;DHT22;42754;0.000;0.000;2022-09-12T06:22:08;13.20;99.90
56869;DHT22;42754;0.000;0.000;2022-09-12T06:24:34;13.30;99.90
56869;DHT22;42754;0.000;0.000;2022-09-12T06:27:00;13.30;99.90
56869;DHT22;42754;0.000;0.000;2022-09-12T06:29:27;13.40;99.90
56869;DHT22;42754;0.000;0.000;2022-09-12T06:31:53;13.50;99.90
56869;DHT22;42754;0.000;0.000;2022-09-12T06:34:18;13.50;99.90
56869;DHT22;42754;0.000;0.000;2022-09-12T06:36:46;13.50;99.90
56869;DHT22;42754;0.000;0.000;2022-09-12T06:39:14;13.60;99.90
56869;DHT22;42754;0.000;0.000;2022-09-12T06:41:41;13.60;99.90
56869;DHT22;42754;0.000;0.000;2022-09-12T06:44:08;13.70;99.90
56869;DHT22;42754;0.000;0.000;2022-09-12T06:46:35;13.70;99.90
56869;DHT22;42754;0.000;0.000;2022-09-12T06:49:00;13.80;99.90
56869;DHT22;42754;0.000;0.000;2022-09-12T06:51:27;13.80;99.90
56869;DHT22;42754;0.000;0.000;2022-09-12T06:53:55;13.80;99.90
56869;DHT22;42754;0.000;0.000;2022-09-12T06:56:24;13.80;99.90
56869;DHT22;42754;0.000;0.000;2022-09-12T06:58:50;13.90;99.90
56869;DHT22;42754;0.000;0.000;2022-09-12T07:01:18;13.90;99.90
56869;DHT22;42754;0.000;0.000;2022-09-12T07:03:55;13.90;99.90
56869;DHT22;42754;0.000;0.000;2022-09-12T07:06:22;13.90;99.90
56869;DHT22;42754;0.000;0.000;2022-09-12T07:08:49;13.90;99.90
56869;DHT22;42754;0.000;0.000;2022-09-12T07:11:17;13.90;99.90
56869;DHT22;42754;0.000;0.000;2022-09-12T07:13:46;14.00;99.90
56869;DHT22;42754;0.000;0.000;2022-09-12T07:16:13;14.10;99.90
56869;DHT22;42754;0.000;0.000;2022-09-12T07:18:39;14.20;99.90
56869;DHT22;42754;0.000;0.000;2022-09-12T07:21:08;14.40;99.90
56869;DHT22;42754;0.000;0.000;2022-09-12T07:23:35;14.70;99.90
56869;DHT22;42754;0.000;0.000;2022-09-12T07:26:01;15.00;99.90
56869;DHT22;42754;0.000;0.000;2022-09-12T07:28:31;15.30;99.90
56869;DHT22;42754;0.000;0.000;2022-09-12T07:30:57;15.60;99.90
56869;DHT22;42754;0.000;0.000;2022-09-12T07:33:28;15.80;99.90
56869;DHT22;42754;0.000;0.000;2022-09-12T07:35:54;15.90;99.90
56869;DHT22;42754;0.000;0.000;2022-09-12T07:38:25;15.80;99.90
56869;DHT22;42754;0.000;0.000;2022-09-12T07:40:50;15.70;99.90
56869;DHT22;42754;0.000;0.000;2022-09-12T07:43:16;15.60;99.90
56869;DHT22;42754;0.000;0.000;2022-09-12T07:45:41;15.50;99.90
56869;DHT22;42754;0.000;0.000;2022-09-12T07:48:08;15.70;99.90
56869;DHT22;42754;0.000;0.000;2022-09-12T07:50:35;15.80;99.90
56869;DHT22;42754;0.000;0.000;2022-09-12T07:53:02;16.10;99.90
56869;DHT22;42754;0.000;0.000;2022-09-12T07:55:28;16.20;99.90
56869;DHT22;42754;0.000;0.000;2022-09-12T07:57:54;16.10;99.90
56869;DHT22;42754;0.000;0.000;2022-09-12T08:00:20;16.00;99.90
56869;DHT22;42754;0.000;0.000;2022-09-12T08:02:52;16.00;99.90
56869;DHT22;42754;0.000;0.000;2022-09-12T08:05:19;16.00;99.90
56869;DHT22;42754;0.000;0.000;2022-09-12T08:07:47;16.00;99.90
56869;DHT22;42754;0.000;0.000;2022-09-12T08:10:14;16.20;99.90
56869;DHT22;42754;0.000;0.000;2022-09-12T08:12:40;16.30;99.90
56869;DHT22;42754;0.000;0.000;2022-09-12T08:15:06;16.30;99.90
56869;DHT22;42754;0.000;0.000;2022-09-12T08:17:32;16.20;99.90
56869;DHT22;42754;0.000;0.000;2022-09-12T08:19:58;16.70;99.90
56869;DHT22;42754;0.000;0.000;2022-09-12T08:22:24;17.20;99.90
56869;DHT22;42754;0.000;0.000;2022-09-12T08:24:50;17.80;99.90
56869;DHT22;42754;0.000;0.000;2022-09-12T08:27:15;18.10;99.90
56869;DHT22;42754;0.000;0.000;2022-09-12T08:29:41;18.40;99.90
56869;DHT22;42754;0.000;0.000;2022-09-12T08:32:07;18.70;99.90
56869;DHT22;42754;0.000;0.000;2022-09-12T08:34:33;18.70;99.90
56869;DHT22;42754;0.000;0.000;2022-09-12T08:36:58;18.90;99.90
56869;DHT22;42754;0.000;0.000;2022-09-12T08:39:24;19.30;99.90
56869;DHT22;42754;0.000;0.000;2022-09-12T08:42:03;19.80;99.90
56869;DHT22;42754;0.000;0.000;2022-09-12T08:45:04;20.60;99.90
56869;DHT22;42754;0.000;0.000;2022-09-12T08:47:38;21.30;99.90
56869;DHT22;42754;0.000;0.000;2022-09-12T08:55:24;22.70;99.90
56869;DHT22;42754;0.000;0.000;2022-09-12T08:57:51;23.20;99.90
56869;DHT22;42754;0.000;0.000;2022-09-12T09:00:18;23.80;99.90
56869;DHT22;42754;0.000;0.000;2022-09-12T09:06:02;24.00;99.70
56869;DHT22;42754;0.000;0.000;2022-09-12T09:14:30;23.80;99.90
56869;DHT22;42754;0.000;0.000;2022-09-12T09:17:15;24.20;99.20
56869;DHT22;42754;0.000;0.000;2022-09-12T09:19:48;24.40;98.60
56869;DHT22;42754;0.000;0.000;2022-09-12T09:25:08;24.80;98.00
56869;DHT22;42754;0.000;0.000;2022-09-12T09:27:46;24.80;98.10
56869;DHT22;42754;0.000;0.000;2022-09-12T09:30:16;24.50;99.00
56869;DHT22;42754;0.000;0.000;2022-09-12T09:32:45;24.30;97.50
56869;DHT22;42754;0.000;0.000;2022-09-12T09:43:33;24.00;99.20
56869;DHT22;42754;0.000;0.000;2022-09-12T09:46:00;23.60;99.90
56869;DHT22;42754;0.000;0.000;2022-09-12T09:48:33;23.50;99.90
56869;DHT22;42754;0.000;0.000;2022-09-12T09:51:02;23.30;99.90
56869;DHT22;42754;0.000;0.000;2022-09-12T09:53:50;22.90;99.90
56869;DHT22;42754;0.000;0.000;2022-09-12T09:56:34;22.90;99.90
56869;DHT22;42754;0.000;0.000;2022-09-12T10:01:50;22.40;99.90
56869;DHT22;42754;0.000;0.000;2022-09-12T10:04:19;22.40;99.90
56869;DHT22;42754;0.000;0.000;2022-09-12T10:06:45;22.40;99.90
56869;DHT22;42754;0.000;0.000;2022-09-12T10:11:40;22.80;99.90
56869;DHT22;42754;0.000;0.000;2022-09-12T10:16:53;23.30;99.90
56869;DHT22;42754;0.000;0.000;2022-09-12T10:19:30;23.30;99.90
56869;DHT22;42754;0.000;0.000;2022-09-12T10:21:57;23.30;99.80
56869;DHT22;42754;0.000;0.000;2022-09-12T10:24:47;23.30;99.90
56869;DHT22;42754;0.000;0.000;2022-09-12T10:27:18;23.50;99.90
56869;DHT22;42754;0.000;0.000;2022-09-12T10:29:48;23.60;99.90
56869;DHT22;42754;0.000;0.000;2022-09-12T10:34:47;23.70;99.90
56869;DHT22;42754;0.000;0.000;2022-09-12T10:37:22;23.90;99.50
56869;DHT22;42754;0.000;0.000;2022-09-12T10:39:54;24.40;99.40
56869;DHT22;42754;0.000;0.000;2022-09-12T10:47:54;24.80;96.20
56869;DHT22;42754;0.000;0.000;2022-09-12T10:50:31;25.30;96.30
56869;DHT22;42754;0.000;0.000;2022-09-12T10:53:22;26.00;95.50
56869;DHT22;42754;0.000;0.000;2022-09-12T11:04:05;26.40;93.80
56869;DHT22;42754;0.000;0.000;2022-09-12T11:10:01;26.60;93.20
56869;DHT22;42754;0.000;0.000;2022-09-12T11:12:42;26.40;91.90
56869;DHT22;42754;0.000;0.000;2022-09-12T11:18:08;26.80;91.90
56869;DHT22;42754;0.000;0.000;2022-09-12T11:24:13;26.80;93.00
56869;DHT22;42754;0.000;0.000;2022-09-12T11:29:22;26.90;92.30
56869;DHT22;42754;0.000;0.000;2022-09-12T11:44:00;26.90;90.80
56869;DHT22;42754;0.000;0.000;2022-09-12T11:46:35;27.00;90.00
56869;DHT22;42754;0.000;0.000;2022-09-12T11:51:56;27.10;90.50
56869;DHT22;42754;0.000;0.000;2022-09-12T11:54:35;27.10;90.20
56869;DHT22;42754;0.000;0.000;2022-09-12T12:00:17;27.40;87.70
56869;DHT22;42754;0.000;0.000;2022-09-12T12:03:03;27.70;90.30
56869;DHT22;42754;0.000;0.000;2022-09-12T12:08:24;27.60;88.30
56869;DHT22;42754;0.000;0.000;2022-09-12T12:10:56;27.40;87.70
56869;DHT22;42754;0.000;0.000;2022-09-12T12:13:33;27.30;88.40
56869;DHT22;42754;0.000;0.000;2022-09-12T12:16:03;27.80;87.90
56869;DHT22;42754;0.000;0.000;2022-09-12T12:18:32;28.10;89.20
56869;DHT22;42754;0.000;0.000;2022-09-12T12:36:57;27.10;87.70
56869;DHT22;42754;0.000;0.000;2022-09-12T12:42:02;27.40;89.20
56869;DHT22;42754;0.000;0.000;2022-09-12T12:47:17;27.30;88.70
56869;DHT22;42754;0.000;0.000;2022-09-12T12:49:50;27.20;88.10
56869;DHT22;42754;0.000;0.000;2022-09-12T12:52:17;26.90;86.90
56869;DHT22;42754;0.000;0.000;2022-09-12T13:00:47;26.60;86.50
56869;DHT22;42754;0.000;0.000;2022-09-12T13:05:22;26.80;88.10
56869;DHT22;42754;0.000;0.000;2022-09-12T13:08:01;26.60;86.80
56869;DHT22;42754;0.000;0.000;2022-09-12T13:10:29;26.60;86.40
56869;DHT22;42754;0.000;0.000;2022-09-12T13:12:58;26.30;88.50
56869;DHT22;42754;0.000;0.000;2022-09-12T13:18:06;26.50;89.20
56869;DHT22;42754;0.000;0.000;2022-09-12T13:20:49;26.60;89.00
56869;DHT22;42754;0.000;0.000;2022-09-12T13:23:26;26.50;86.80
56869;DHT22;42754;0.000;0.000;2022-09-12T13:25:57;26.60;90.40
56869;DHT22;42754;0.000;0.000;2022-09-12T13:28:24;26.40;86.90
56869;DHT22;42754;0.000;0.000;2022-09-12T13:33:38;26.60;87.90
56869;DHT22;42754;0.000;0.000;2022-09-12T13:39:26;26.50;86.30
56869;DHT22;42754;0.000;0.000;2022-09-12T13:44:46;26.10;87.00
56869;DHT22;42754;0.000;0.000;2022-09-12T13:47:29;26.10;87.50
56869;DHT22;42754;0.000;0.000;2022-09-12T13:49:57;26.30;88.50
56869;DHT22;42754;0.000;0.000;2022-09-12T13:52:29;26.20;87.00
56869;DHT22;42754;0.000;0.000;2022-09-12T13:54:57;26.10;85.90
56869;DHT22;42754;0.000;0.000;2022-09-12T13:57:37;25.90;86.70
56869;DHT22;42754;0.000;0.000;2022-09-12T14:00:23;25.80;86.50
56869;DHT22;42754;0.000;0.000;2022-09-12T14:02:49;26.00;87.50
56869;DHT22;42754;0.000;0.000;2022-09-12T14:05:36;25.90;86.90
56869;DHT22;42754;0.000;0.000;2022-09-12T14:08:06;26.00;88.20
56869;DHT22;42754;0.000;0.000;2022-09-12T14:10:36;26.10;88.40
56869;DHT22;42754;0.000;0.000;2022-09-12T14:13:08;25.90;89.50
56869;DHT22;42754;0.000;0.000;2022-09-12T14:15:36;26.10;89.10
56869;DHT22;42754;0.000;0.000;2022-09-12T14:18:03;25.90;87.60
56869;DHT22;42754;0.000;0.000;2022-09-12T14:20:31;25.80;88.20
56869;DHT22;42754;0.000;0.000;2022-09-12T14:23:14;25.60;87.50
56869;DHT22;42754;0.000;0.000;2022-09-12T14:25:43;25.40;89.40
56869;DHT22;42754;0.000;0.000;2022-09-12T14:28:13;25.40;90.20
56869;DHT22;42754;0.000;0.000;2022-09-12T14:30:39;25.50;90.00
56869;DHT22;42754;0.000;0.000;2022-09-12T14:33:15;25.30;88.70
56869;DHT22;42754;0.000;0.000;2022-09-12T14:35:47;25.40;90.20
56869;DHT22;42754;0.000;0.000;2022-09-12T14:43:19;25.30;90.10
56869;DHT22;42754;0.000;0.000;2022-09-12T14:45:55;25.30;88.70
56869;DHT22;42754;0.000;0.000;2022-09-12T14:48:24;25.30;90.40
56869;DHT22;42754;0.000;0.000;2022-09-12T14:50:51;25.20;90.00
56869;DHT22;42754;0.000;0.000;2022-09-12T14:55:52;25.00;88.30
56869;DHT22;42754;0.000;0.000;2022-09-12T14:58:22;25.00;88.60
56869;DHT22;42754;0.000;0.000;2022-09-12T15:00:57;24.90;88.50
56869;DHT22;42754;0.000;0.000;2022-09-12T15:03:35;24.90;88.50
56869;DHT22;42754;0.000;0.000;2022-09-12T15:06:04;24.90;89.50
56869;DHT22;42754;0.000;0.000;2022-09-12T15:08:30;24.80;88.60
56869;DHT22;42754;0.000;0.000;2022-09-12T15:10:57;24.70;90.00
56869;DHT22;42754;0.000;0.000;2022-09-12T15:13:25;24.70;90.00
56869;DHT22;42754;0.000;0.000;2022-09-12T15:15:56;24.70;89.20
56869;DHT22;42754;0.000;0.000;2022-09-12T15:18:26;24.60;89.90
56869;DHT22;42754;0.000;0.000;2022-09-12T15:21:01;24.70;90.00
56869;DHT22;42754;0.000;0.000;2022-09-12T15:23:49;24.60;90.40
56869;DHT22;42754;0.000;0.000;2022-09-12T15:26:19;24.60;90.00
56869;DHT22;42754;0.000;0.000;2022-09-12T15:28:46;24.60;90.10
56869;DHT22;42754;0.000;0.000;2022-09-12T15:31:27;24.60;90.20
56869;DHT22;42754;0.000;0.000;2022-09-12T15:33:54;24.50;89.60
56869;DHT22;42754;0.000;0.000;2022-09-12T15:36:21;24.30;89.80
56869;DHT22;42754;0.000;0.000;2022-09-12T15:38:48;24.40;90.40
56869;DHT22;42754;0.000;0.000;2022-09-12T15:41:24;24.30;90.20
56869;DHT22;42754;0.000;0.000;2022-09-12T15:43:51;24.20;90.00
56869;DHT22;42754;0.000;0.000;2022-09-12T15:46:17;24.10;90.30
56869;DHT22;42754;0.000;0.000;2022-09-12T15:48:43;24.10;90.70
56869;DHT22;42754;0.000;0.000;2022-09-12T15:51:14;24.20;90.60
56869;DHT22;42754;0.000;0.000;2022-09-12T15:53:40;24.20;90.60
56869;DHT22;42754;0.000;0.000;2022-09-12T15:56:06;24.10;90.50
56869;DHT22;42754;0.000;0.000;2022-09-12T15:58:31;24.10;90.70
56869;DHT22;42754;0.000;0.000;2022-09-12T16:00:57;24.00;90.40
56869;DHT22;42754;0.000;0.000;2022-09-12T16:03:25;24.00;90.70
56869;DHT22;42754;0.000;0.000;2022-09-12T16:05:57;24.10;90.90
56869;DHT22;42754;0.000;0.000;2022-09-12T16:08:23;24.10;91.00
56869;DHT22;42754;0.000;0.000;2022-09-12T16:10:53;24.20;91.60
56869;DHT22;42754;0.000;0.000;2022-09-12T16:13:20;24.10;91.30
56869;DHT22;42754;0.000;0.000;2022-09-12T16:15:46;24.00;91.80
56869;DHT22;42754;0.000;0.000;2022-09-12T16:18:11;23.90;91.90
56869;DHT22;42754;0.000;0.000;2022-09-12T16:20:38;23.90;91.40
56869;DHT22;42754;0.000;0.000;2022-09-12T16:23:05;23.90;91.90
56869;DHT22;42754;0.000;0.000;2022-09-12T16:25:30;23.80;92.00
56869;DHT22;42754;0.000;0.000;2022-09-12T16:27:56;23.80;91.80
56869;DHT22;42754;0.000;0.000;2022-09-12T16:30:22;23.80;91.80
56869;DHT22;42754;0.000;0.000;2022-09-12T16:32:47;23.80;92.00
56869;DHT22;42754;0.000;0.000;2022-09-12T16:35:13;23.70;93.20
56869;DHT22;42754;0.000;0.000;2022-09-12T16:37:39;23.60;92.80
56869;DHT22;42754;0.000;0.000;2022-09-12T16:40:05;23.60;92.40
56869;DHT22;42754;0.000;0.000;2022-09-12T16:42:31;23.50;92.50
56869;DHT22;42754;0.000;0.000;2022-09-12T16:44:57;23.50;92.70
56869;DHT22;42754;0.000;0.000;2022-09-12T16:47:22;23.50;92.40
56869;DHT22;42754;0.000;0.000;2022-09-12T16:49:48;23.40;93.40
56869;DHT22;42754;0.000;0.000;2022-09-12T16:52:16;23.30;92.10
56869;DHT22;42754;0.000;0.000;2022-09-12T16:54:44;23.30;92.50
56869;DHT22;42754;0.000;0.000;2022-09-12T16:57:10;23.20;93.50
56869;DHT22;42754;0.000;0.000;2022-09-12T16:59:36;23.10;94.10
56869;DHT22;42754;0.000;0.000;2022-09-12T17:02:01;23.00;93.20
56869;DHT22;42754;0.000;0.000;2022-09-12T17:04:27;22.90;93.90
56869;DHT22;42754;0.000;0.000;2022-09-12T17:06:53;22.80;94.10
56869;DHT22;42754;0.000;0.000;2022-09-12T17:09:19;22.70;95.10
56869;DHT22;42754;0.000;0.000;2022-09-12T17:11:46;22.70;95.50
56869;DHT22;42754;0.000;0.000;2022-09-12T17:14:12;22.50;95.80
56869;DHT22;42754;0.000;0.000;2022-09-12T17:16:41;22.40;96.00
56869;DHT22;42754;0.000;0.000;2022-09-12T17:19:09;22.40;96.10
56869;DHT22;42754;0.000;0.000;2022-09-12T17:21:36;22.30;96.20
56869;DHT22;42754;0.000;0.000;2022-09-12T17:24:02;22.20;96.00
56869;DHT22;42754;0.000;0.000;2022-09-12T17:26:28;22.20;96.20
56869;DHT22;42754;0.000;0.000;2022-09-12T17:28:53;22.00;96.90
56869;DHT22;42754;0.000;0.000;2022-09-12T17:31:19;21.90;97.00
56869;DHT22;42754;0.000;0.000;2022-09-12T17:33:45;21.80;97.10
56869;DHT22;42754;0.000;0.000;2022-09-12T17:36:15;21.70;97.40
56869;DHT22;42754;0.000;0.000;2022-09-12T17:38:42;21.60;97.70
56869;DHT22;42754;0.000;0.000;2022-09-12T17:41:13;21.60;97.80
56869;DHT22;42754;0.000;0.000;2022-09-12T17:43:43;21.60;98.10
56869;DHT22;42754;0.000;0.000;2022-09-12T17:46:09;21.40;98.30
56869;DHT22;42754;0.000;0.000;2022-09-12T17:48:35;21.40;97.90
56869;DHT22;42754;0.000;0.000;2022-09-12T17:51:12;21.40;98.50
56869;DHT22;42754;0.000;0.000;2022-09-12T17:53:39;21.30;98.30
56869;DHT22;42754;0.000;0.000;2022-09-12T17:56:05;21.30;98.90
56869;DHT22;42754;0.000;0.000;2022-09-12T17:58:31;21.30;98.30
56869;DHT22;42754;0.000;0.000;2022-09-12T18:01:05;21.30;98.80
56869;DHT22;42754;0.000;0.000;2022-09-12T18:03:56;21.20;99.10
56869;DHT22;42754;0.000;0.000;2022-09-12T18:06:24;21.10;99.20
56869;DHT22;42754;0.000;0.000;2022-09-12T18:08:50;21.10;99.60
56869;DHT22;42754;0.000;0.000;2022-09-12T18:11:16;21.10;99.90
56869;DHT22;42754;0.000;0.000;2022-09-12T18:13:42;21.00;99.90
56869;DHT22;42754;0.000;0.000;2022-09-12T18:16:09;21.00;99.90
56869;DHT22;42754;0.000;0.000;2022-09-12T18:18:35;20.90;99.90
56869;DHT22;42754;0.000;0.000;2022-09-12T18:21:03;20.80;99.90
56869;DHT22;42754;0.000;0.000;2022-09-12T18:23:29;20.80;99.90
56869;DHT22;42754;0.000;0.000;2022-09-12T18:26:04;20.80;99.90
56869;DHT22;42754;0.000;0.000;2022-09-12T18:28:39;20.70;99.90
56869;DHT22;42754;0.000;0.000;2022-09-12T18:31:18;20.70;99.90
56869;DHT22;42754;0.000;0.000;2022-09-12T18:33:45;20.60;99.90
56869;DHT22;42754;0.000;0.000;2022-09-12T18:36:12;20.60;99.90
56869;DHT22;42754;0.000;0.000;2022-09-12T18:38:39;20.50;99.90
56869;DHT22;42754;0.000;0.000;2022-09-12T18:41:07;20.50;99.90
56869;DHT22;42754;0.000;0.000;2022-09-12T18:43:33;20.40;99.90
56869;DHT22;42754;0.000;0.000;2022-09-12T18:46:03;20.40;99.90